createdAt,value
2018-05-07T00:01:02.625Z,100586.70
2018-05-07T00:03:29.971Z,100585.91
2018-05-07T00:05:57.395Z,100585.22
2018-05-07T00:08:24.753Z,100576.34
2018-05-07T00:10:53.122Z,100579.66
2018-05-07T00:13:20.520Z,100580.95
2018-05-07T00:15:47.974Z,100575.42
2018-05-07T00:18:15.424Z,100576.14
2018-05-07T00:20:42.838Z,100573.47
2018-05-07T00:23:10.187Z,100577.23
2018-05-07T00:25:37.640Z,100574.89
2018-05-07T00:28:05.048Z,100567.77
2018-05-07T00:30:32.449Z,100568.44
2018-05-07T00:32:59.852Z,100569.16
2018-05-07T00:35:27.339Z,100570.72
2018-05-07T00:37:54.740Z,100568.12
2018-05-07T00:40:22.508Z,100565.41
2018-05-07T00:42:49.901Z,100568.28
2018-05-07T00:45:17.287Z,100569.30
2018-05-07T00:47:44.678Z,100569.17
2018-05-07T00:50:12.100Z,100567.20
2018-05-07T00:52:39.497Z,100568.81
2018-05-07T00:55:18.677Z,100570.48
2018-05-07T00:57:46.065Z,100566.35
2018-05-07T01:00:13.457Z,100571.12
2018-05-07T01:02:42.787Z,100577.57
2018-05-07T01:05:10.191Z,100575.00
2018-05-07T01:07:37.572Z,100583.09
2018-05-07T01:10:04.963Z,100587.75
2018-05-07T01:12:32.592Z,100588.00
2018-05-07T01:14:59.991Z,100589.09
2018-05-07T01:17:27.383Z,100585.66
2018-05-07T01:19:54.792Z,100593.96
2018-05-07T01:22:22.564Z,100600.92
2018-05-07T01:24:51.962Z,100604.11
2018-05-07T01:27:19.371Z,100599.70
2018-05-07T01:29:46.774Z,100602.17
2018-05-07T01:32:14.178Z,100601.28
2018-05-07T01:34:41.789Z,100601.34
2018-05-07T01:37:09.455Z,100588.77
2018-05-07T01:39:37.832Z,100589.58
2018-05-07T01:42:05.402Z,100590.88
2018-05-07T01:44:33.069Z,100597.85
2018-05-07T01:47:01.688Z,100599.30
2018-05-07T01:49:29.388Z,100597.56
2018-05-07T01:51:56.804Z,100593.98
2018-05-07T01:54:24.188Z,100590.44
2018-05-07T01:56:51.580Z,100595.58
2018-05-07T01:59:18.951Z,100592.23
2018-05-07T02:01:46.326Z,100594.61
2018-05-07T02:04:13.711Z,100583.76
2018-05-07T02:06:41.104Z,100584.69
2018-05-07T02:09:08.531Z,100583.09
2018-05-07T02:11:35.910Z,100578.39
2018-05-07T02:14:03.361Z,100584.09
2018-05-07T02:16:30.799Z,100584.75
2018-05-07T02:18:58.285Z,100574.99
2018-05-07T02:21:25.681Z,100579.00
2018-05-07T02:23:53.143Z,100575.55
2018-05-07T02:26:20.510Z,100570.27
2018-05-07T02:28:47.923Z,100561.89
2018-05-07T02:31:15.315Z,100560.59
2018-05-07T02:33:42.693Z,100559.37
2018-05-07T02:36:10.109Z,100559.83
2018-05-07T02:38:37.498Z,100556.92
2018-05-07T02:41:04.876Z,100555.63
2018-05-07T02:43:32.303Z,100556.48
2018-05-07T02:45:59.662Z,100556.25
2018-05-07T02:48:27.094Z,100555.42
2018-05-07T02:50:54.492Z,100556.35
2018-05-07T02:53:22.984Z,100557.33
2018-05-07T02:55:50.932Z,100556.71
2018-05-07T02:58:18.339Z,100555.95
2018-05-07T03:00:45.724Z,100555.84
2018-05-07T03:03:13.098Z,100550.60
2018-05-07T03:05:40.493Z,100552.59
2018-05-07T03:08:07.879Z,100554.94
2018-05-07T03:10:35.474Z,100543.92
2018-05-07T03:13:02.939Z,100545.95
2018-05-07T03:15:30.339Z,100543.02
2018-05-07T03:17:57.725Z,100548.61
2018-05-07T03:20:25.199Z,100545.05
2018-05-07T03:22:53.276Z,100548.44
2018-05-07T03:25:20.662Z,100541.34
2018-05-07T03:27:48.063Z,100541.36
2018-05-07T03:30:15.453Z,100542.16
2018-05-07T03:32:42.831Z,100542.44
2018-05-07T03:35:10.230Z,100543.33
2018-05-07T03:37:37.600Z,100549.30
2018-05-07T03:40:05.285Z,100542.52
2018-05-07T03:42:32.673Z,100548.44
2018-05-07T03:45:00.068Z,100545.09
2018-05-07T03:47:27.431Z,100547.89
2018-05-07T03:49:57.339Z,100544.88
2018-05-07T03:52:24.722Z,100546.94
2018-05-07T03:54:52.110Z,100551.09
2018-05-07T03:57:19.502Z,100555.61
2018-05-07T03:59:46.918Z,100556.47
2018-05-07T04:02:14.266Z,100553.77
2018-05-07T04:04:41.660Z,100559.30
2018-05-07T04:07:09.047Z,100559.67
2018-05-07T04:09:36.465Z,100562.09
2018-05-07T04:12:03.968Z,100558.96
2018-05-07T04:14:31.382Z,100553.91
2018-05-07T04:17:10.590Z,100549.56
2018-05-07T04:19:49.871Z,100545.18
2018-05-07T04:22:29.236Z,100550.20
2018-05-07T04:24:56.630Z,100544.49
2018-05-07T04:27:24.007Z,100550.24
2018-05-07T04:29:51.394Z,100547.37
2018-05-07T04:32:18.778Z,100544.89
2018-05-07T04:34:46.184Z,100556.81
2018-05-07T04:37:13.567Z,100551.27
2018-05-07T04:39:40.957Z,100552.17
2018-05-07T04:42:08.490Z,100555.55
2018-05-07T04:44:35.882Z,100556.44
2018-05-07T04:47:03.272Z,100556.25
2018-05-07T04:49:30.712Z,100555.61
2018-05-07T04:51:58.102Z,100560.29
2018-05-07T04:54:25.504Z,100555.33
2018-05-07T04:56:53.573Z,100555.34
2018-05-07T04:59:20.972Z,100563.30
2018-05-07T05:01:48.485Z,100559.26
2018-05-07T05:04:15.871Z,100561.75
2018-05-07T05:06:43.278Z,100550.94
2018-05-07T05:09:10.669Z,100555.95
2018-05-07T05:11:38.068Z,100551.65
2018-05-07T05:14:05.440Z,100550.97
2018-05-07T05:16:32.835Z,100543.55
2018-05-07T05:19:00.290Z,100555.34
2018-05-07T05:21:27.623Z,100552.08
2018-05-07T05:23:54.998Z,100550.64
2018-05-07T05:26:22.395Z,100553.90
2018-05-07T05:28:49.785Z,100556.45
2018-05-07T05:31:17.168Z,100553.88
2018-05-07T05:33:44.595Z,100561.77
2018-05-07T05:36:12.016Z,100556.30
2018-05-07T05:38:39.390Z,100554.78
2018-05-07T05:41:06.810Z,100554.39
2018-05-07T05:43:34.304Z,100553.10
2018-05-07T05:46:01.625Z,100550.53
2018-05-07T05:48:29.010Z,100552.28
2018-05-07T05:50:56.396Z,100553.57
2018-05-07T05:53:23.897Z,100548.33
2018-05-07T05:55:51.323Z,100556.66
2018-05-07T05:58:18.716Z,100556.77
2018-05-07T06:00:46.114Z,100550.94
2018-05-07T06:03:13.508Z,100557.62
2018-05-07T06:05:40.905Z,100557.57
2018-05-07T06:08:08.310Z,100559.15
2018-05-07T06:10:35.711Z,100555.56
2018-05-07T06:13:03.095Z,100557.79
2018-05-07T06:15:30.499Z,100551.48
2018-05-07T06:17:57.894Z,100558.33
2018-05-07T06:20:25.291Z,100557.68
2018-05-07T06:22:52.691Z,100565.13
2018-05-07T06:25:20.081Z,100559.65
2018-05-07T06:27:47.653Z,100560.01
2018-05-07T06:30:15.088Z,100559.67
2018-05-07T06:32:42.475Z,100558.74
2018-05-07T06:35:09.873Z,100566.78
2018-05-07T06:37:37.261Z,100565.73
2018-05-07T06:40:04.648Z,100564.11
2018-05-07T06:42:32.033Z,100560.93
2018-05-07T06:44:59.439Z,100568.84
2018-05-07T06:47:26.828Z,100562.15
2018-05-07T06:49:54.243Z,100563.08
2018-05-07T06:52:21.677Z,100562.84
2018-05-07T06:54:49.057Z,100562.77
2018-05-07T06:57:16.502Z,100558.81
2018-05-07T06:59:43.896Z,100561.85
2018-05-07T07:02:11.386Z,100557.55
2018-05-07T07:04:38.715Z,100567.56
2018-05-07T07:07:06.112Z,100561.51
2018-05-07T07:09:33.496Z,100549.66
2018-05-07T07:12:00.957Z,100555.94
2018-05-07T07:14:28.356Z,100548.45
2018-05-07T07:16:55.743Z,100549.02
2018-05-07T07:19:23.148Z,100549.39
2018-05-07T07:21:50.602Z,100549.86
2018-05-07T07:24:17.936Z,100548.64
2018-05-07T07:26:45.320Z,100546.19
2018-05-07T07:29:12.707Z,100543.25
2018-05-07T07:31:40.096Z,100535.30
2018-05-07T07:34:07.532Z,100532.17
2018-05-07T07:36:34.873Z,100535.42
2018-05-07T07:39:02.276Z,100533.65
2018-05-07T07:41:29.662Z,100531.06
2018-05-07T07:43:58.294Z,100532.58
2018-05-07T07:46:25.708Z,100530.26
2018-05-07T07:48:53.090Z,100531.78
2018-05-07T07:51:20.509Z,100532.34
2018-05-07T07:53:47.909Z,100530.34
2018-05-07T07:56:15.287Z,100531.95
2018-05-07T07:58:42.681Z,100529.23
2018-05-07T08:01:10.081Z,100520.89
2018-05-07T08:03:37.509Z,100521.89
2018-05-07T08:06:04.900Z,100517.95
2018-05-07T08:08:32.279Z,100517.10
2018-05-07T08:10:59.671Z,100527.23
2018-05-07T08:13:27.133Z,100521.02
2018-05-07T08:15:54.521Z,100519.44
2018-05-07T08:18:21.925Z,100520.88
2018-05-07T08:20:49.320Z,100524.47
2018-05-07T08:23:16.666Z,100527.53
2018-05-07T08:25:44.069Z,100512.86
2018-05-07T08:28:11.456Z,100520.76
2018-05-07T08:30:38.839Z,100522.34
2018-05-07T08:33:06.227Z,100519.42
2018-05-07T08:35:33.649Z,100516.94
2018-05-07T08:38:01.037Z,100513.95
2018-05-07T08:40:28.419Z,100521.70
2018-05-07T08:42:55.949Z,100517.36
2018-05-07T08:45:23.830Z,100512.19
2018-05-07T08:47:51.228Z,100513.66
2018-05-07T08:50:18.633Z,100505.51
2018-05-07T08:52:46.109Z,100512.47
2018-05-07T08:55:13.425Z,100509.02
2018-05-07T08:57:40.799Z,100505.14
2018-05-07T09:00:08.196Z,100515.98
2018-05-07T09:02:35.614Z,100505.97
2018-05-07T09:05:03.115Z,100510.77
2018-05-07T09:07:30.521Z,100509.50
2018-05-07T09:09:57.922Z,100498.23
2018-05-07T09:12:25.329Z,100498.25
2018-05-07T09:14:52.765Z,100495.67
2018-05-07T09:17:20.122Z,100491.82
2018-05-07T09:19:47.672Z,100490.93
2018-05-07T09:22:15.068Z,100485.27
2018-05-07T09:24:42.545Z,100485.72
2018-05-07T09:27:09.981Z,100476.17
2018-05-07T09:29:37.394Z,100475.69
2018-05-07T09:32:04.783Z,100472.72
2018-05-07T09:34:32.169Z,100467.18
2018-05-07T09:36:59.839Z,100464.94
2018-05-07T09:39:27.227Z,100464.92
2018-05-07T09:41:54.940Z,100459.81
2018-05-07T09:44:22.319Z,100461.98
2018-05-07T09:46:49.725Z,100459.42
2018-05-07T09:49:17.263Z,100463.33
2018-05-07T09:51:44.668Z,100458.58
2018-05-07T09:54:12.197Z,100461.64
2018-05-07T09:56:51.710Z,100462.52
2018-05-07T09:59:19.144Z,100456.89
2018-05-07T10:01:47.236Z,100445.66
2018-05-07T10:04:14.615Z,100450.84
2018-05-07T10:06:42.008Z,100448.24
2018-05-07T10:09:09.393Z,100443.03
2018-05-07T10:11:36.784Z,100442.17
2018-05-07T10:14:04.173Z,100433.09
2018-05-07T10:16:31.713Z,100432.22
2018-05-07T10:18:59.120Z,100437.39
2018-05-07T10:21:26.513Z,100428.30
2018-05-07T10:23:53.897Z,100424.38
2018-05-07T10:26:21.292Z,100411.80
2018-05-07T10:28:48.681Z,100419.62
2018-05-07T10:31:16.080Z,100394.51
2018-05-07T10:33:43.447Z,100412.27
2018-05-07T10:36:10.835Z,100403.55
2018-05-07T10:38:38.215Z,100407.45
2018-05-07T10:41:05.647Z,100407.91
2018-05-07T10:43:33.035Z,100404.89
2018-05-07T10:46:00.427Z,100404.00
2018-05-07T10:48:28.245Z,100397.05
2018-05-07T10:50:56.208Z,100392.66
2018-05-07T10:53:23.596Z,100392.20
2018-05-07T10:55:50.993Z,100390.45
2018-05-07T10:58:18.405Z,100388.20
2018-05-07T11:00:45.787Z,100390.30
2018-05-07T11:03:13.170Z,100380.30
2018-05-07T11:05:40.558Z,100377.27
2018-05-07T11:08:07.977Z,100370.78
2018-05-07T11:10:35.356Z,100372.47
2018-05-07T11:13:02.761Z,100366.30
2018-05-07T11:15:30.263Z,100363.30
2018-05-07T11:17:57.646Z,100367.15
2018-05-07T11:20:25.514Z,100371.78
2018-05-07T11:22:52.962Z,100360.28
2018-05-07T11:25:20.339Z,100361.48
2018-05-07T11:27:47.727Z,100354.83
2018-05-07T11:30:15.172Z,100344.61
2018-05-07T11:32:42.562Z,100345.14
2018-05-07T11:35:09.960Z,100346.02
2018-05-07T11:37:37.357Z,100346.41
2018-05-07T11:40:04.761Z,100345.12
2018-05-07T11:42:32.160Z,100341.31
2018-05-07T11:44:59.548Z,100338.73
2018-05-07T11:47:26.994Z,100338.63
2018-05-07T11:49:54.394Z,100324.05
2018-05-07T11:52:22.048Z,100315.75
2018-05-07T11:54:49.595Z,100319.41
2018-05-07T11:57:16.999Z,100312.02
2018-05-07T11:59:44.383Z,100315.97
2018-05-07T12:02:11.923Z,100306.98
2018-05-07T12:04:39.343Z,100298.08
2018-05-07T12:07:06.733Z,100292.59
2018-05-07T12:09:34.302Z,100297.97
2018-05-07T12:12:01.690Z,100284.24
2018-05-07T12:14:29.072Z,100274.23
2018-05-07T12:16:56.468Z,100282.52
2018-05-07T12:19:23.865Z,100279.56
2018-05-07T12:21:51.266Z,100275.78
2018-05-07T12:24:18.648Z,100274.52
2018-05-07T12:26:46.055Z,100269.36
2018-05-07T12:29:13.438Z,100261.83
2018-05-07T12:31:40.877Z,100261.32
2018-05-07T12:34:08.221Z,100257.73
2018-05-07T12:36:35.861Z,100263.31
2018-05-07T12:39:03.239Z,100255.21
2018-05-07T12:41:30.631Z,100247.86
2018-05-07T12:43:58.025Z,100242.41
2018-05-07T12:46:25.659Z,100240.66
2018-05-07T12:48:53.128Z,100246.59
2018-05-07T12:51:20.536Z,100233.03
2018-05-07T12:53:47.907Z,100235.17
2018-05-07T12:56:15.305Z,100228.52
2018-05-07T12:58:42.689Z,100226.76
2018-05-07T13:01:10.095Z,100224.52
2018-05-07T13:03:37.722Z,100219.56
2018-05-07T13:06:05.117Z,100215.88
2018-05-07T13:08:32.543Z,100209.45
2018-05-07T13:11:00.001Z,100211.03
2018-05-07T13:13:27.327Z,100206.63
2018-05-07T13:15:55.785Z,100204.43
2018-05-07T13:18:23.184Z,100204.72
2018-05-07T13:20:50.575Z,100194.18
2018-05-07T13:23:17.970Z,100204.22
2018-05-07T13:25:45.361Z,100188.59
2018-05-07T13:28:12.760Z,100175.45
2018-05-07T13:30:40.141Z,100176.32
2018-05-07T13:33:07.529Z,100170.64
2018-05-07T13:35:34.932Z,100167.34
2018-05-07T13:38:02.326Z,100166.78
2018-05-07T13:40:29.713Z,100167.97
2018-05-07T13:42:57.101Z,100152.02
2018-05-07T13:45:24.502Z,100154.15
2018-05-07T13:47:51.893Z,100150.77
2018-05-07T13:50:19.284Z,100152.25
2018-05-07T13:52:46.672Z,100149.35
2018-05-07T13:55:14.068Z,100142.30
2018-05-07T13:57:41.450Z,100143.70
2018-05-07T14:00:08.870Z,100139.75
2018-05-07T14:02:36.269Z,100143.06
2018-05-07T14:05:03.652Z,100140.88
2018-05-07T14:07:31.041Z,100129.48
2018-05-07T14:09:58.428Z,100135.41
2018-05-07T14:12:26.301Z,100135.85
2018-05-07T14:14:53.679Z,100122.51
2018-05-07T14:17:21.070Z,100118.53
2018-05-07T14:19:48.457Z,100118.05
2018-05-07T14:22:15.857Z,100121.30
2018-05-07T14:24:43.248Z,100114.18
2018-05-07T14:27:10.656Z,100120.23
2018-05-07T14:29:38.033Z,100112.56
2018-05-07T14:32:05.429Z,100118.32
2018-05-07T14:34:32.825Z,100105.48
2018-05-07T14:37:00.217Z,100107.92
2018-05-07T14:39:27.601Z,100103.34
2018-05-07T14:41:55.021Z,100095.05
2018-05-07T14:44:22.420Z,100093.77
2018-05-07T14:46:49.825Z,100086.72
2018-05-07T14:49:17.221Z,100090.91
2018-05-07T14:51:45.413Z,100091.87
2018-05-07T14:54:12.807Z,100087.52
2018-05-07T14:56:40.195Z,100084.86
2018-05-07T14:59:07.583Z,100080.48
2018-05-07T15:01:34.969Z,100075.77
2018-05-07T15:04:02.383Z,100072.17
2018-05-07T15:06:29.939Z,100078.67
2018-05-07T15:08:57.353Z,100073.92
2018-05-07T15:11:24.769Z,100075.09
2018-05-07T15:16:42.155Z,100057.58
2018-05-07T15:19:09.581Z,100060.01
2018-05-07T15:21:37.073Z,100057.63
2018-05-07T15:24:04.494Z,100050.95
2018-05-07T15:26:31.861Z,100053.70
2018-05-07T15:28:59.253Z,100050.01
2018-05-07T15:31:26.640Z,100044.02
2018-05-07T15:33:54.033Z,100046.36
2018-05-07T15:36:21.529Z,100043.27
2018-05-07T15:38:48.839Z,100042.27
2018-05-07T15:41:17.003Z,100038.36
2018-05-07T15:43:44.714Z,100034.96
2018-05-07T15:46:12.097Z,100032.36
2018-05-07T15:48:39.511Z,100035.27
2018-05-07T15:51:06.977Z,100039.20
2018-05-07T15:53:34.392Z,100026.48
2018-05-07T15:56:01.803Z,100037.20
2018-05-07T15:58:29.168Z,100041.19
2018-05-07T16:00:56.654Z,100028.14
2018-05-07T16:03:24.154Z,100031.41
2018-05-07T16:05:51.476Z,100033.11
2018-05-07T16:08:18.877Z,100033.59
2018-05-07T16:10:46.264Z,100019.19
2018-05-07T16:13:13.680Z,100027.53
2018-05-07T16:15:41.074Z,100023.80
2018-05-07T16:18:08.484Z,100022.89
2018-05-07T16:20:35.866Z,100014.50
2018-05-07T16:23:03.273Z,100020.08
2018-05-07T16:25:30.690Z,100018.58
2018-05-07T16:27:58.081Z,100016.87
2018-05-07T16:30:25.615Z,100018.45
2018-05-07T16:32:53.222Z,100016.69
2018-05-07T16:35:20.640Z,100014.77
2018-05-07T16:37:48.032Z,100007.70
2018-05-07T16:40:15.445Z,100010.67
2018-05-07T16:42:42.915Z,100010.02
2018-05-07T16:45:10.226Z,100006.78
2018-05-07T16:47:37.769Z,100010.67
2018-05-07T16:50:05.151Z,100008.00
2018-05-07T16:52:32.540Z,100007.52
2018-05-07T16:54:59.930Z,100008.83
2018-05-07T16:57:27.322Z,100007.46
2018-05-07T16:59:54.811Z,100015.67
2018-05-07T17:02:22.208Z,100010.80
2018-05-07T17:04:49.605Z,100008.11
2018-05-07T17:07:16.997Z,100006.58
2018-05-07T17:09:44.469Z,100008.48
2018-05-07T17:12:11.887Z,100003.65
2018-05-07T17:14:39.464Z,100010.38
2018-05-07T17:17:06.847Z,100004.88
2018-05-07T17:19:34.239Z,100004.61
2018-05-07T17:22:01.705Z,100005.06
2018-05-07T17:24:29.100Z,100006.11
2018-05-07T17:26:57.048Z,100006.42
2018-05-07T17:29:24.564Z,100004.92
2018-05-07T17:31:51.941Z,100001.08
2018-05-07T17:34:19.383Z,100005.86
2018-05-07T17:36:46.764Z,100001.45
2018-05-07T17:39:14.155Z,100006.59
2018-05-07T17:41:41.545Z,100005.64
2018-05-07T17:47:17.352Z,100000.81
2018-05-07T17:49:44.754Z,100003.72
2018-05-07T17:52:12.140Z,100008.38
2018-05-07T17:54:39.609Z,100002.23
2018-05-07T17:57:06.921Z,100000.59
2018-05-07T17:59:34.311Z,100002.33
2018-05-07T18:02:01.770Z,100001.48
2018-05-07T18:04:29.094Z,99996.11
2018-05-07T18:06:57.240Z,100001.41
2018-05-07T18:09:24.620Z,99996.20
2018-05-07T18:11:52.004Z,99999.70
2018-05-07T18:14:19.403Z,99989.05
2018-05-07T18:16:47.123Z,99994.68
2018-05-07T18:19:14.603Z,99988.08
2018-05-07T18:21:41.883Z,99995.73
2018-05-07T18:24:09.282Z,99991.72
2018-05-07T18:26:36.659Z,99990.77
2018-05-07T18:29:04.044Z,99990.29
2018-05-07T18:31:31.419Z,99996.05
2018-05-07T18:33:58.802Z,99994.60
2018-05-07T18:36:26.184Z,99991.32
2018-05-07T18:38:53.571Z,99993.12
2018-05-07T18:41:20.943Z,99993.19
2018-05-07T18:43:48.335Z,99991.60
2018-05-07T18:46:15.721Z,99997.04
2018-05-07T18:48:43.099Z,99999.02
2018-05-07T18:51:10.475Z,99996.62
2018-05-07T18:53:37.880Z,99991.86
2018-05-07T18:56:05.291Z,99995.89
2018-05-07T18:58:32.725Z,99997.34
2018-05-07T19:01:00.103Z,99997.66
2018-05-07T19:03:27.555Z,99994.91
2018-05-07T19:05:54.959Z,99998.25
2018-05-07T19:08:22.340Z,99997.83
2018-05-07T19:10:49.738Z,100006.91
2018-05-07T19:13:17.120Z,100006.34
2018-05-07T19:15:44.506Z,100003.78
2018-05-07T19:18:11.895Z,100003.26
2018-05-07T19:20:39.295Z,100005.28
2018-05-07T19:23:06.681Z,100000.09
2018-05-07T19:25:34.070Z,100004.97
2018-05-07T19:28:01.460Z,100009.11
2018-05-07T19:30:28.846Z,100012.97
2018-05-07T19:32:56.256Z,100015.94
2018-05-07T19:35:23.662Z,100009.50
2018-05-07T19:37:51.031Z,100008.89
2018-05-07T19:40:18.432Z,100018.45
2018-05-07T19:42:45.810Z,100013.20
2018-05-07T19:45:13.216Z,100014.75
2018-05-07T19:47:41.593Z,100017.41
2018-05-07T19:50:09.273Z,100012.64
2018-05-07T19:52:36.680Z,100010.83
2018-05-07T19:55:05.984Z,100015.14
2018-05-07T19:57:33.379Z,100015.72
2018-05-07T20:00:00.776Z,100015.41
2018-05-07T20:02:28.160Z,100015.67
2018-05-07T20:04:55.582Z,100011.46
2018-05-07T20:07:22.981Z,100014.91
2018-05-07T20:09:51.287Z,100008.31
2018-05-07T20:12:18.961Z,100007.80
2018-05-07T20:14:46.316Z,100005.25
2018-05-07T20:17:13.715Z,100002.69
2018-05-07T20:19:41.396Z,100006.91
2018-05-07T20:22:09.097Z,100005.95
2018-05-07T20:24:37.725Z,99997.91
2018-05-07T20:27:05.155Z,100010.54
2018-05-07T20:29:32.543Z,100008.27
2018-05-07T20:31:59.932Z,100009.65
2018-05-07T20:34:27.355Z,100009.67
2018-05-07T20:36:54.762Z,100018.92
2018-05-07T20:39:22.140Z,100012.24
2018-05-07T20:41:50.524Z,100010.23
2018-05-07T20:44:17.894Z,100015.83
2018-05-07T20:46:45.279Z,100010.89
2018-05-07T20:49:12.722Z,100010.22
2018-05-07T20:51:40.059Z,100014.23
2018-05-07T20:54:07.451Z,100015.31
2018-05-07T20:56:34.847Z,100020.50
2018-05-07T20:59:02.254Z,100009.42
2018-05-07T21:01:29.774Z,100011.57
2018-05-07T21:03:57.946Z,100012.74
2018-05-07T21:06:25.492Z,100014.27
2018-05-07T21:08:52.851Z,100013.95
2018-05-07T21:11:20.244Z,100013.20
2018-05-07T21:13:47.636Z,100016.09
2018-05-07T21:16:15.041Z,100013.99
2018-05-07T21:18:42.424Z,100013.77
2018-05-07T21:21:09.891Z,100019.51
2018-05-07T21:23:37.191Z,100021.16
2018-05-07T21:26:04.652Z,100020.38
2018-05-07T21:28:32.043Z,100023.56
2018-05-07T21:30:59.440Z,100018.88
2018-05-07T21:33:26.949Z,100018.81
2018-05-07T21:35:54.421Z,100021.50
2018-05-07T21:38:21.784Z,100021.56
2018-05-07T21:40:49.210Z,100016.09
2018-05-07T21:43:16.619Z,100020.37
2018-05-07T21:45:44.004Z,100024.76
2018-05-07T21:48:11.384Z,100022.33
2018-05-07T21:50:38.770Z,100018.79
2018-05-07T21:53:06.150Z,100023.45
2018-05-07T21:55:33.546Z,100024.27
2018-05-07T21:58:00.993Z,100023.77
2018-05-07T22:00:28.464Z,100027.28
2018-05-07T22:02:55.924Z,100026.95
2018-05-07T22:05:23.311Z,100019.00
2018-05-07T22:07:50.695Z,100025.62
2018-05-07T22:10:18.082Z,100025.27
2018-05-07T22:12:45.459Z,100016.44
2018-05-07T22:15:12.851Z,100023.66
2018-05-07T22:17:40.241Z,100025.39
2018-05-07T22:20:07.625Z,100020.75
2018-05-07T22:22:35.310Z,100025.88
2018-05-07T22:25:02.899Z,100030.28
2018-05-07T22:27:30.296Z,100025.95
2018-05-07T22:29:58.682Z,100024.97
2018-05-07T22:32:26.060Z,100025.16
2018-05-07T22:34:53.434Z,100029.52
2018-05-07T22:37:20.819Z,100026.89
2018-05-07T22:39:48.284Z,100022.98
2018-05-07T22:42:15.587Z,100021.30
2018-05-07T22:44:42.995Z,100007.52
2018-05-07T22:47:10.391Z,100016.09
2018-05-07T22:49:37.767Z,100018.34
2018-05-07T22:52:05.159Z,100021.32
2018-05-07T22:54:32.555Z,100021.73
2018-05-07T22:56:59.961Z,100020.55
2018-05-07T22:59:27.364Z,100013.26
2018-05-07T23:01:54.758Z,100010.22
2018-05-07T23:04:22.143Z,100017.55
2018-05-07T23:06:49.527Z,100013.22
2018-05-07T23:09:16.923Z,100006.34
2018-05-07T23:11:44.314Z,100010.24
2018-05-07T23:14:11.706Z,100006.82
2018-05-07T23:16:39.091Z,100003.35
2018-05-07T23:19:06.486Z,99993.83
2018-05-07T23:21:33.869Z,99997.75
2018-05-07T23:24:01.253Z,99994.69
2018-05-07T23:26:28.837Z,99992.95
2018-05-07T23:28:56.214Z,99998.14
2018-05-07T23:31:23.675Z,99993.84
2018-05-07T23:33:51.080Z,99996.49
2018-05-07T23:36:18.465Z,99986.56
2018-05-07T23:38:45.869Z,99977.06
2018-05-07T23:41:13.251Z,99976.18
2018-05-07T23:43:40.633Z,99972.78
2018-05-07T23:46:08.014Z,99977.08
2018-05-07T23:48:35.388Z,99972.74
2018-05-07T23:51:02.820Z,99967.14
2018-05-07T23:53:30.193Z,99965.89
2018-05-07T23:55:57.584Z,99964.14
2018-05-07T23:58:25.211Z,99960.23
